createdAt,value
2018-10-18T00:01:29.723Z,49.67
2018-10-18T00:03:57.898Z,55.17
2018-10-18T00:06:26.075Z,59.00
2018-10-18T00:08:54.261Z,57.17
2018-10-18T00:11:22.447Z,51.07
2018-10-18T00:13:50.643Z,58.33
2018-10-18T00:16:18.819Z,56.17
2018-10-18T00:18:47.028Z,56.43
2018-10-18T00:21:15.219Z,53.57
2018-10-18T00:23:43.391Z,57.40
2018-10-18T00:26:11.640Z,54.57
2018-10-18T00:28:39.744Z,58.10
2018-10-18T00:31:07.903Z,52.40
2018-10-18T00:33:36.103Z,50.73
2018-10-18T00:36:04.705Z,52.63
2018-10-18T00:38:32.822Z,55.67
2018-10-18T00:41:00.988Z,50.83
2018-10-18T00:43:29.146Z,50.37
2018-10-18T00:45:57.333Z,59.60
2018-10-18T00:48:25.506Z,54.03
2018-10-18T00:50:53.710Z,63.70
2018-10-18T00:53:21.872Z,58.93
2018-10-18T00:55:50.084Z,57.37
2018-10-18T00:58:18.281Z,58.40
2018-10-18T01:00:46.467Z,55.47
2018-10-18T01:03:14.649Z,61.47
2018-10-18T01:05:42.783Z,61.17
2018-10-18T01:08:11.035Z,59.80
2018-10-18T01:10:39.447Z,55.77
2018-10-18T01:13:07.640Z,53.50
2018-10-18T01:15:35.778Z,56.60
2018-10-18T01:18:04.000Z,57.00
2018-10-18T01:20:32.124Z,66.07
2018-10-18T01:23:00.301Z,61.27
2018-10-18T01:25:28.549Z,61.47
2018-10-18T01:27:56.730Z,52.40
2018-10-18T01:30:24.999Z,60.27
2018-10-18T01:32:53.154Z,55.83
2018-10-18T01:35:21.390Z,57.20
2018-10-18T01:37:49.623Z,65.93
2018-10-18T01:40:17.795Z,59.40
2018-10-18T01:42:45.991Z,57.23
2018-10-18T01:45:14.173Z,52.40
2018-10-18T01:47:42.328Z,61.47
2018-10-18T01:50:10.841Z,60.17
2018-10-18T01:52:38.948Z,57.27
2018-10-18T01:55:07.808Z,54.30
2018-10-18T01:57:36.023Z,54.27
2018-10-18T02:00:04.742Z,48.40
2018-10-18T02:02:33.264Z,57.03
2018-10-18T02:05:01.452Z,56.00
2018-10-18T02:07:29.676Z,52.70
2018-10-18T02:09:57.831Z,54.87
2018-10-18T02:12:26.125Z,47.10
2018-10-18T02:14:54.360Z,57.53
2018-10-18T02:17:22.539Z,56.97
2018-10-18T02:19:50.715Z,55.20
2018-10-18T02:22:18.887Z,57.23
2018-10-18T02:24:47.063Z,60.67
2018-10-18T02:27:15.268Z,61.10
2018-10-18T02:29:43.472Z,65.33
2018-10-18T02:32:11.632Z,63.43
2018-10-18T02:34:39.775Z,70.10
2018-10-18T02:37:08.020Z,70.90
2018-10-18T02:39:36.257Z,68.03
2018-10-18T02:42:04.556Z,80.17
2018-10-18T02:44:32.647Z,73.77
2018-10-18T02:47:00.832Z,78.20
2018-10-18T02:49:29.039Z,65.97
2018-10-18T02:51:57.254Z,78.30
2018-10-18T02:54:25.440Z,79.83
2018-10-18T02:56:53.648Z,78.67
2018-10-18T02:59:21.835Z,91.90
2018-10-18T03:01:50.015Z,88.87
2018-10-18T03:04:18.223Z,94.00
2018-10-18T03:06:46.380Z,83.30
2018-10-18T03:09:14.595Z,88.77
2018-10-18T03:11:42.764Z,91.07
2018-10-18T03:14:10.968Z,95.97
2018-10-18T03:16:39.151Z,96.47
2018-10-18T03:19:07.309Z,89.43
2018-10-18T03:21:35.495Z,91.20
2018-10-18T03:24:03.688Z,94.63
2018-10-18T03:26:31.836Z,80.87
2018-10-18T03:29:00.039Z,75.87
2018-10-18T03:31:28.248Z,79.73
2018-10-18T03:33:56.393Z,80.20
2018-10-18T03:36:24.595Z,74.87
2018-10-18T03:38:52.767Z,79.80
2018-10-18T03:41:21.025Z,77.50
2018-10-18T03:43:49.194Z,76.33
2018-10-18T03:46:17.368Z,76.47
2018-10-18T03:48:45.617Z,77.93
2018-10-18T03:51:13.843Z,78.20
2018-10-18T03:53:42.132Z,74.83
2018-10-18T03:56:10.334Z,75.03
2018-10-18T03:58:38.519Z,72.47
2018-10-18T04:01:06.743Z,70.30
2018-10-18T04:03:34.923Z,73.43
2018-10-18T04:06:03.215Z,67.83
2018-10-18T04:08:31.325Z,63.40
2018-10-18T04:10:59.511Z,70.40
2018-10-18T04:13:27.719Z,66.60
2018-10-18T04:15:55.955Z,66.00
2018-10-18T04:18:24.218Z,70.23
2018-10-18T04:20:52.332Z,65.67
2018-10-18T04:23:24.715Z,69.13
2018-10-18T04:25:53.181Z,67.83
2018-10-18T04:28:21.358Z,74.67
2018-10-18T04:30:49.552Z,72.63
2018-10-18T04:33:17.748Z,80.60
2018-10-18T04:35:45.923Z,72.23
2018-10-18T04:38:14.100Z,71.00
2018-10-18T04:40:42.302Z,69.63
2018-10-18T04:43:10.462Z,67.00
2018-10-18T04:45:38.686Z,77.90
2018-10-18T04:48:07.379Z,67.80
2018-10-18T04:50:35.373Z,62.50
2018-10-18T04:53:03.546Z,62.63
2018-10-18T04:55:31.741Z,60.67
2018-10-18T04:58:00.071Z,58.70
2018-10-18T05:00:28.452Z,67.17
2018-10-18T05:02:57.023Z,65.43
2018-10-18T05:05:46.283Z,61.23
2018-10-18T05:08:14.577Z,56.07
2018-10-18T05:10:42.734Z,54.10
2018-10-18T05:13:10.994Z,57.23
2018-10-18T05:15:39.391Z,57.57
2018-10-18T05:18:08.331Z,58.97
2018-10-18T05:20:36.920Z,55.03
2018-10-18T05:23:05.593Z,50.03
2018-10-18T05:25:34.174Z,53.10
2018-10-18T05:28:02.508Z,47.80
2018-10-18T05:30:30.764Z,49.70
2018-10-18T05:32:58.982Z,50.43
2018-10-18T05:35:27.235Z,52.63
2018-10-18T05:37:55.477Z,49.60
2018-10-18T05:40:23.788Z,58.20
2018-10-18T05:42:52.003Z,50.97
2018-10-18T05:45:20.191Z,53.77
2018-10-18T05:47:48.464Z,50.80
2018-10-18T05:50:16.647Z,47.80
2018-10-18T05:52:44.860Z,45.53
2018-10-18T05:55:13.463Z,47.63
2018-10-18T05:57:42.095Z,50.77
2018-10-18T06:00:13.745Z,53.20
2018-10-18T06:02:42.140Z,47.73
2018-10-18T06:05:11.445Z,48.47
2018-10-18T06:07:39.755Z,47.83
2018-10-18T06:10:19.768Z,50.27
2018-10-18T06:12:48.175Z,47.93
2018-10-18T06:15:16.399Z,46.53
2018-10-18T06:17:44.679Z,52.10
2018-10-18T06:20:12.944Z,48.60
2018-10-18T06:22:42.022Z,46.93
2018-10-18T06:25:11.212Z,52.93
2018-10-18T06:27:39.395Z,53.50
2018-10-18T06:30:09.838Z,53.60
2018-10-18T06:32:38.153Z,57.50
2018-10-18T06:35:07.356Z,48.97
2018-10-18T06:37:35.988Z,57.50
2018-10-18T06:40:04.820Z,58.93
2018-10-18T06:42:33.011Z,59.80
2018-10-18T06:45:01.284Z,58.97
2018-10-18T06:47:29.637Z,60.87
2018-10-18T06:49:57.842Z,63.00
2018-10-18T06:52:25.957Z,69.87
2018-10-18T06:54:54.216Z,66.13
2018-10-18T06:57:22.349Z,61.90
2018-10-18T06:59:50.597Z,54.10
2018-10-18T07:02:18.814Z,55.20
2018-10-18T07:04:47.035Z,59.30
2018-10-18T07:07:15.282Z,55.67
2018-10-18T07:09:43.465Z,56.17
2018-10-18T07:12:11.845Z,52.67
2018-10-18T07:14:40.011Z,54.03
2018-10-18T07:17:08.363Z,54.70
2018-10-18T07:19:36.623Z,53.17
2018-10-18T07:22:04.856Z,55.00
2018-10-18T07:24:33.027Z,51.13
2018-10-18T07:27:01.497Z,53.93
2018-10-18T07:29:29.703Z,46.13
2018-10-18T07:31:57.941Z,47.23
2018-10-18T07:34:26.342Z,51.90
2018-10-18T07:36:54.541Z,53.37
2018-10-18T07:39:22.710Z,48.50
2018-10-18T07:41:50.966Z,49.33
2018-10-18T07:44:19.162Z,49.90
2018-10-18T07:46:47.479Z,56.67
2018-10-18T07:49:15.611Z,54.27
2018-10-18T07:51:43.790Z,57.93
2018-10-18T07:54:12.035Z,53.97
2018-10-18T07:56:40.204Z,52.03
2018-10-18T07:59:08.400Z,48.00
2018-10-18T08:01:36.679Z,52.97
2018-10-18T08:04:04.884Z,55.57
2018-10-18T08:06:33.102Z,51.90
2018-10-18T08:09:01.402Z,52.80
2018-10-18T08:11:29.604Z,56.03
2018-10-18T08:13:57.782Z,58.27
2018-10-18T08:16:26.312Z,59.87
2018-10-18T08:18:54.552Z,53.70
2018-10-18T08:21:23.006Z,55.83
2018-10-18T08:23:51.044Z,48.63
2018-10-18T08:26:19.246Z,50.13
2018-10-18T08:28:47.449Z,55.43
2018-10-18T08:31:15.733Z,56.53
2018-10-18T08:33:44.194Z,51.80
2018-10-18T08:36:12.442Z,56.07
2018-10-18T08:38:40.660Z,55.23
2018-10-18T08:41:08.847Z,51.47
2018-10-18T08:43:37.068Z,55.90
2018-10-18T08:46:05.291Z,64.90
2018-10-18T08:48:33.527Z,56.13
2018-10-18T08:51:01.699Z,58.47
2018-10-18T08:53:29.904Z,53.53
2018-10-18T08:55:58.119Z,51.43
2018-10-18T08:58:26.303Z,48.53
2018-10-18T09:00:55.451Z,52.23
2018-10-18T09:03:23.575Z,54.63
2018-10-18T09:05:51.787Z,54.70
2018-10-18T09:08:19.998Z,47.43
2018-10-18T09:10:48.287Z,44.70
2018-10-18T09:13:16.558Z,43.53
2018-10-18T09:15:44.695Z,46.57
2018-10-18T09:18:12.871Z,43.43
2018-10-18T09:20:41.065Z,46.87
2018-10-18T09:23:09.467Z,43.53
2018-10-18T09:25:37.692Z,37.20
2018-10-18T09:28:05.907Z,34.07
2018-10-18T09:30:34.071Z,40.20
2018-10-18T09:33:02.282Z,41.73
2018-10-18T09:35:30.496Z,43.40
2018-10-18T09:37:58.720Z,40.73
2018-10-18T09:40:26.924Z,46.67
2018-10-18T09:42:55.172Z,56.57
2018-10-18T09:45:23.317Z,48.63
2018-10-18T09:47:51.551Z,48.20
2018-10-18T09:50:19.750Z,58.57
2018-10-18T09:52:48.084Z,63.63
2018-10-18T09:55:16.351Z,56.37
2018-10-18T09:57:44.515Z,40.97
2018-10-18T10:00:18.004Z,42.93
2018-10-18T10:02:49.218Z,44.70
2018-10-18T10:05:17.620Z,42.77
2018-10-18T10:07:46.172Z,33.73
2018-10-18T10:10:14.344Z,42.07
2018-10-18T10:12:42.526Z,43.87
2018-10-18T10:15:10.827Z,47.03
2018-10-18T10:17:39.146Z,42.70
2018-10-18T10:20:07.447Z,33.40
2018-10-18T10:22:35.646Z,37.27
2018-10-18T10:25:04.034Z,35.30
2018-10-18T10:27:32.239Z,37.73
2018-10-18T10:30:00.451Z,41.27
2018-10-18T10:32:28.687Z,41.43
2018-10-18T10:34:56.962Z,37.03
2018-10-18T10:37:25.240Z,34.10
2018-10-18T10:39:53.443Z,33.50
2018-10-18T10:42:21.711Z,35.37
2018-10-18T10:44:49.994Z,31.57
2018-10-18T10:47:18.130Z,29.60
2018-10-18T10:49:46.307Z,30.53
2018-10-18T10:52:14.605Z,29.77
2018-10-18T10:54:42.744Z,29.57
2018-10-18T10:57:10.956Z,32.37
2018-10-18T10:59:39.150Z,29.30
2018-10-18T11:02:07.569Z,25.27
2018-10-18T11:04:35.631Z,23.23
2018-10-18T11:07:03.860Z,22.93
2018-10-18T11:09:32.108Z,22.23
2018-10-18T11:12:00.350Z,22.77
2018-10-18T11:14:28.436Z,25.93
2018-10-18T11:16:56.672Z,26.83
2018-10-18T11:19:24.834Z,24.50
2018-10-18T11:21:53.019Z,28.43
2018-10-18T11:24:21.327Z,26.57
2018-10-18T11:26:49.451Z,25.73
2018-10-18T11:29:17.646Z,26.50
2018-10-18T11:31:45.843Z,23.57
2018-10-18T11:34:14.186Z,20.40
2018-10-18T11:36:42.310Z,23.47
2018-10-18T11:39:10.967Z,23.07
2018-10-18T11:41:39.214Z,23.60
2018-10-18T11:44:07.670Z,24.77
2018-10-18T11:46:35.770Z,22.90
2018-10-18T11:49:03.959Z,28.40
2018-10-18T11:51:32.331Z,22.23
2018-10-18T11:54:00.359Z,21.87
2018-10-18T11:56:28.594Z,20.13
2018-10-18T11:58:56.839Z,21.87
2018-10-18T12:01:25.274Z,18.33
2018-10-18T12:03:53.420Z,29.13
2018-10-18T12:06:21.655Z,20.60
2018-10-18T12:08:49.915Z,19.23
2018-10-18T12:11:18.148Z,25.00
2018-10-18T12:13:46.265Z,22.87
2018-10-18T12:16:14.451Z,20.57
2018-10-18T12:18:42.651Z,19.63
2018-10-18T12:21:10.834Z,24.43
2018-10-18T12:23:39.253Z,18.70
2018-10-18T12:26:07.486Z,17.77
2018-10-18T12:28:35.655Z,18.60
2018-10-18T12:31:03.874Z,21.20
2018-10-18T12:33:32.139Z,19.63
2018-10-18T12:36:00.336Z,17.60
2018-10-18T12:38:28.503Z,13.30
2018-10-18T12:40:56.810Z,16.20
2018-10-18T12:43:24.905Z,17.60
2018-10-18T12:45:53.087Z,14.67
2018-10-18T12:48:21.410Z,16.47
2018-10-18T12:50:49.467Z,11.80
2018-10-18T12:53:17.666Z,11.03
2018-10-18T12:55:45.870Z,10.60
2018-10-18T12:58:14.043Z,11.53
2018-10-18T13:00:42.233Z,8.50
2018-10-18T13:03:10.412Z,11.50
2018-10-18T13:05:38.614Z,14.53
2018-10-18T13:08:06.865Z,9.23
2018-10-18T13:10:35.052Z,9.13
2018-10-18T13:13:03.235Z,11.57
2018-10-18T13:15:31.446Z,7.73
2018-10-18T13:17:59.673Z,7.10
2018-10-18T13:20:27.870Z,8.20
2018-10-18T13:22:56.071Z,9.03
2018-10-18T13:25:24.297Z,8.93
2018-10-18T13:27:52.443Z,13.33
2018-10-18T13:30:20.644Z,9.13
2018-10-18T13:32:48.823Z,9.00
2018-10-18T13:35:16.993Z,8.60
2018-10-18T13:37:48.104Z,9.60
2018-10-18T13:40:16.367Z,9.00
2018-10-18T13:42:44.586Z,7.97
2018-10-18T13:45:12.767Z,7.87
2018-10-18T13:47:41.014Z,9.13
2018-10-18T13:50:09.394Z,8.43
2018-10-18T13:52:37.620Z,7.83
2018-10-18T13:55:06.572Z,7.80
2018-10-18T13:57:34.795Z,8.47
2018-10-18T14:00:37.316Z,8.63
2018-10-18T14:03:05.570Z,7.13
2018-10-18T14:05:33.878Z,6.40
2018-10-18T14:08:02.098Z,5.63
2018-10-18T14:10:30.268Z,6.37
2018-10-18T14:12:58.472Z,6.57
2018-10-18T14:15:26.647Z,8.30
2018-10-18T14:17:55.071Z,5.63
2018-10-18T14:20:23.178Z,9.47
2018-10-18T14:22:51.372Z,5.93
2018-10-18T14:25:19.552Z,5.77
2018-10-18T14:27:47.739Z,5.03
2018-10-18T14:30:16.129Z,6.93
2018-10-18T14:32:44.189Z,5.33
2018-10-18T14:35:13.155Z,5.27
2018-10-18T14:37:41.400Z,5.60
2018-10-18T14:40:11.305Z,4.50
2018-10-18T14:42:39.527Z,4.33
2018-10-18T14:45:08.480Z,4.87
2018-10-18T14:47:36.738Z,6.50
2018-10-18T14:50:05.777Z,4.93
2018-10-18T14:52:33.882Z,3.80
2018-10-18T14:55:02.052Z,3.70
2018-10-18T14:57:30.307Z,4.67
2018-10-18T14:59:58.510Z,3.50
2018-10-18T15:02:26.756Z,5.60
2018-10-18T15:04:54.984Z,4.13
2018-10-18T15:07:23.427Z,4.20
2018-10-18T15:09:51.667Z,4.07
2018-10-18T15:12:23.517Z,3.50
2018-10-18T15:14:51.895Z,3.87
2018-10-18T15:17:25.548Z,4.60
2018-10-18T15:19:54.857Z,3.30
2018-10-18T15:22:23.031Z,3.67
2018-10-18T15:24:59.453Z,3.13
2018-10-18T15:27:28.056Z,3.77
2018-10-18T15:29:56.220Z,3.60
2018-10-18T15:32:24.490Z,3.70
2018-10-18T15:34:53.219Z,4.53
2018-10-18T15:37:23.190Z,5.20
2018-10-18T15:39:56.278Z,5.20
2018-10-18T15:42:25.968Z,5.73
2018-10-18T15:44:54.246Z,5.53
2018-10-18T15:47:22.625Z,4.77
2018-10-18T15:49:53.233Z,7.53
2018-10-18T15:52:21.607Z,7.83
2018-10-18T15:54:50.359Z,10.87
2018-10-18T15:57:18.696Z,10.33
2018-10-18T15:59:46.963Z,5.50
2018-10-18T16:02:15.143Z,6.07
2018-10-18T16:04:43.710Z,4.83
2018-10-18T16:07:11.958Z,4.70
2018-10-18T16:09:40.138Z,3.60
2018-10-18T16:12:08.455Z,4.37
2018-10-18T16:14:36.624Z,4.03
2018-10-18T16:17:05.008Z,3.80
2018-10-18T16:19:35.640Z,4.77
2018-10-18T16:22:04.111Z,5.67
2018-10-18T16:24:32.723Z,6.23
2018-10-18T16:27:00.924Z,6.50
2018-10-18T16:29:29.135Z,4.60
2018-10-18T16:31:57.368Z,6.40
2018-10-18T16:34:25.524Z,5.23
2018-10-18T16:36:53.719Z,7.20
2018-10-18T16:39:21.988Z,6.27
2018-10-18T16:41:50.340Z,5.37
2018-10-18T16:44:18.650Z,5.60
2018-10-18T16:46:46.729Z,5.17
2018-10-18T16:49:14.945Z,6.93
2018-10-18T16:51:43.162Z,4.87
2018-10-18T16:54:11.501Z,4.77
2018-10-18T16:56:39.574Z,7.07
2018-10-18T16:59:07.774Z,4.83
2018-10-18T17:01:36.301Z,5.00
2018-10-18T17:04:04.769Z,6.60
2018-10-18T17:06:41.511Z,5.27
2018-10-18T17:09:12.223Z,4.20
2018-10-18T17:11:43.606Z,4.23
2018-10-18T17:14:11.815Z,3.57
2018-10-18T17:16:40.010Z,3.63
2018-10-18T17:19:08.342Z,3.13
2018-10-18T17:21:36.504Z,2.40
2018-10-18T17:24:04.972Z,5.13
2018-10-18T17:26:33.441Z,3.70
2018-10-18T17:29:01.552Z,4.30
2018-10-18T17:31:29.738Z,2.37
2018-10-18T17:33:58.063Z,4.27
2018-10-18T17:36:26.441Z,3.83
2018-10-18T17:38:54.721Z,3.90
2018-10-18T17:41:22.936Z,5.50
2018-10-18T17:43:51.215Z,5.23
2018-10-18T17:46:20.165Z,4.27
2018-10-18T17:48:48.355Z,5.93
2018-10-18T17:51:16.659Z,4.20
2018-10-18T17:53:46.021Z,5.37
2018-10-18T17:56:14.295Z,6.70
2018-10-18T17:58:42.447Z,6.50
2018-10-18T18:01:13.952Z,4.40
2018-10-18T18:03:42.094Z,4.30
2018-10-18T18:06:10.509Z,5.27
2018-10-18T18:08:38.518Z,4.17
2018-10-18T18:11:06.720Z,5.90
2018-10-18T18:13:35.143Z,5.17
2018-10-18T18:16:03.445Z,6.03
2018-10-18T18:18:31.575Z,5.73
2018-10-18T18:21:00.363Z,6.13
2018-10-18T18:23:28.587Z,5.77
2018-10-18T18:25:56.842Z,7.13
2018-10-18T18:28:25.117Z,7.67
2018-10-18T18:30:54.413Z,6.67
2018-10-18T18:33:22.599Z,7.10
2018-10-18T18:35:50.815Z,9.13
2018-10-18T18:38:19.127Z,7.67
2018-10-18T18:40:47.336Z,9.07
2018-10-18T18:43:15.676Z,8.93
2018-10-18T18:45:44.047Z,9.70
2018-10-18T18:48:12.348Z,9.30
2018-10-18T18:50:40.588Z,10.03
2018-10-18T18:53:08.972Z,11.57
2018-10-18T18:55:37.412Z,13.50
2018-10-18T18:58:06.126Z,13.50
2018-10-18T19:00:34.334Z,13.17
2018-10-18T19:03:02.533Z,11.97
2018-10-18T19:05:31.041Z,13.83
2018-10-18T19:07:59.239Z,14.83
2018-10-18T19:10:27.638Z,13.93
2018-10-18T19:12:56.192Z,14.30
2018-10-18T19:15:24.763Z,16.87
2018-10-18T19:17:53.115Z,16.03
2018-10-18T19:20:21.788Z,17.07
2018-10-18T19:22:50.070Z,13.53
2018-10-18T19:25:18.127Z,15.27
2018-10-18T19:27:46.450Z,15.67
2018-10-18T19:30:14.677Z,14.70
2018-10-18T19:32:42.856Z,16.77
2018-10-18T19:35:11.043Z,20.17
2018-10-18T19:37:39.240Z,15.37
2018-10-18T19:40:08.115Z,15.37
2018-10-18T19:42:37.215Z,17.13
2018-10-18T19:45:06.467Z,17.10
2018-10-18T19:47:36.512Z,18.77
2018-10-18T19:50:05.534Z,16.77
2018-10-18T19:52:33.872Z,20.03
2018-10-18T19:55:01.972Z,16.47
2018-10-18T19:57:30.182Z,17.87
2018-10-18T19:59:58.461Z,17.30
2018-10-18T20:02:26.677Z,16.77
2018-10-18T20:04:54.929Z,17.80
2018-10-18T20:07:23.099Z,15.07
2018-10-18T20:09:51.416Z,16.90
2018-10-18T20:12:19.591Z,14.90
2018-10-18T20:14:47.791Z,17.37
2018-10-18T20:17:15.979Z,16.93
2018-10-18T20:19:44.251Z,14.20
2018-10-18T20:22:13.547Z,15.47
2018-10-18T20:24:42.101Z,13.77
2018-10-18T20:27:10.890Z,15.40
2018-10-18T20:29:42.437Z,16.73
2018-10-18T20:32:10.689Z,14.00
2018-10-18T20:34:38.815Z,13.40
2018-10-18T20:37:06.988Z,14.90
2018-10-18T20:39:35.221Z,14.00
2018-10-18T20:42:03.380Z,16.07
2018-10-18T20:44:39.135Z,15.17
2018-10-18T20:47:07.468Z,14.70
2018-10-18T20:49:35.495Z,12.83
2018-10-18T20:52:03.702Z,16.13
2018-10-18T20:54:31.875Z,16.63
2018-10-18T20:57:00.049Z,14.30
2018-10-18T20:59:28.247Z,15.17
2018-10-18T21:01:56.731Z,12.87
2018-10-18T21:04:24.946Z,15.27
2018-10-18T21:06:53.134Z,15.83
2018-10-18T21:09:21.309Z,17.73
2018-10-18T21:11:49.504Z,16.63
2018-10-18T21:14:17.731Z,17.93
2018-10-18T21:16:45.967Z,15.07
2018-10-18T21:19:14.226Z,18.43
2018-10-18T21:21:42.517Z,18.23
2018-10-18T21:24:10.632Z,14.67
2018-10-18T21:26:38.815Z,16.37
2018-10-18T21:29:07.056Z,16.77
2018-10-18T21:31:35.215Z,17.67
2018-10-18T21:34:05.752Z,17.47
2018-10-18T21:36:34.151Z,17.77
2018-10-18T21:39:08.963Z,16.17
2018-10-18T21:41:37.587Z,18.23
2018-10-18T21:44:05.856Z,20.30
2018-10-18T21:46:34.328Z,19.80
2018-10-18T21:49:02.759Z,24.47
2018-10-18T21:51:31.407Z,20.10
2018-10-18T21:53:59.815Z,22.87
2018-10-18T21:56:28.008Z,20.27
2018-10-18T21:58:56.480Z,22.30
2018-10-18T22:01:24.744Z,20.23
2018-10-18T22:03:52.955Z,19.77
2018-10-18T22:06:21.103Z,17.27
2018-10-18T22:08:49.251Z,17.80
2018-10-18T22:11:17.408Z,17.47
2018-10-18T22:13:46.017Z,18.97
2018-10-18T22:16:14.443Z,15.17
2018-10-18T22:18:42.656Z,16.30
2018-10-18T22:21:10.917Z,14.87
2018-10-18T22:23:39.057Z,13.53
2018-10-18T22:26:07.214Z,14.67
2018-10-18T22:28:35.511Z,14.33
2018-10-18T22:31:04.049Z,14.83
2018-10-18T22:33:32.542Z,17.73
2018-10-18T22:36:00.884Z,13.90
2018-10-18T22:38:29.201Z,12.53
2018-10-18T22:40:57.541Z,12.87
2018-10-18T22:43:25.821Z,12.90
2018-10-18T22:45:59.211Z,12.67
2018-10-18T22:48:27.941Z,14.37
2018-10-18T22:50:56.734Z,11.90
2018-10-18T22:53:25.176Z,12.37
2018-10-18T22:55:54.051Z,11.43
2018-10-18T22:58:22.396Z,11.17
2018-10-18T23:00:50.918Z,11.53
2018-10-18T23:03:20.352Z,11.30
2018-10-18T23:05:49.154Z,9.17
2018-10-18T23:08:17.432Z,11.37
2018-10-18T23:10:47.941Z,10.37
2018-10-18T23:13:16.433Z,9.70
2018-10-18T23:15:44.803Z,12.00
2018-10-18T23:18:13.228Z,10.83
2018-10-18T23:20:42.203Z,12.73
2018-10-18T23:23:11.066Z,11.33
2018-10-18T23:25:39.747Z,11.17
2018-10-18T23:28:08.322Z,13.27
2018-10-18T23:30:36.511Z,11.50
2018-10-18T23:33:04.778Z,10.43
2018-10-18T23:35:32.956Z,11.87
2018-10-18T23:38:01.224Z,12.60
2018-10-18T23:40:29.421Z,16.00
2018-10-18T23:46:09.968Z,12.60
2018-10-18T23:48:38.225Z,13.83
2018-10-18T23:51:06.413Z,15.23
2018-10-18T23:53:34.603Z,14.97
2018-10-18T23:56:02.832Z,13.63
2018-10-18T23:58:31.059Z,12.27
